Terminal Aerodrome Forecast
Issued by NWS Charleston, WV

Current Version | Previous Version | Graphics & Text | Print | Product List | Glossary On
Versions: 1 2 3 4 5 6 7 8 9 10 11 12 13 14 15 16 17 18 19 20 21
935
FTUS41 KRLX 101739
TAFHTS
TAF
KHTS 101739Z 1018/1118 26010G18KT P6SM -SHSN BKN025 OVC035
      TEMPO 1018/1020 5SM -SHSN BKN020
     FM110000 28009KT P6SM -SHSN SCT025 OVC035
     FM110600 26005KT P6SM BKN040
     FM111400 25005KT P6SM SCT045=

USA.gov is the U.S. government's official web portal to all federal, state and local government web resources and services.